Time;durP1;ratioP1;P1;durP2;ratioP2;P2;SDS_P1;SDS_P2;PMS_P1;PMS_P2;Temp;Humidity;BMP_temperature;BMP_pressure;BME280_temperature;BME280_humidity;BME280_pressure;Samples;Min_cycle;Max_cycle;Signal;HPM_P1;HPM_P2
2021/10/05 00:00:25;;;;;;;11.27;6.00;;;;;;;;;;4969466;28;20023;-55
2021/10/05 00:02:50;;;;;;;11.18;5.32;;;;;;;;;;4966858;28;20065;-56
2021/10/05 00:05:16;;;;;;;10.05;5.50;;;;;;;;;;4967957;28;20536;-56
2021/10/05 00:07:41;;;;;;;10.50;5.03;;;;;;;;;;4968338;28;20185;-56
2021/10/05 00:10:10;;;;;;;12.23;5.80;;;;;;;;;;4955511;28;20038;-56
2021/10/05 00:12:35;;;;;;;11.90;5.50;;;;;;;;;;4969514;28;20455;-56
2021/10/05 00:15:02;;;;;;;9.15;5.50;;;;;;;;;;4971150;28;20022;-56
2021/10/05 00:17:27;;;;;;;11.85;6.55;;;;;;;;;;4941129;28;20481;-56
2021/10/05 00:19:53;;;;;;;11.30;6.53;;;;;;;;;;4970498;28;20022;-55
2021/10/05 00:22:18;;;;;;;12.55;6.05;;;;;;;;;;4965369;28;20038;-56
2021/10/05 00:24:44;;;;;;;13.23;7.25;;;;;;;;;;4968599;28;20038;-54
2021/10/05 00:27:10;;;;;;;13.10;6.95;;;;;;;;;;4969435;28;20035;-56
2021/10/05 00:29:35;;;;;;;14.23;7.63;;;;;;;;;;4967340;28;20042;-55
2021/10/05 00:32:01;;;;;;;14.43;7.65;;;;;;;;;;4973672;28;20042;-58
2021/10/05 00:34:26;;;;;;;14.70;7.68;;;;;;;;;;4968012;28;20048;-57
2021/10/05 00:36:52;;;;;;;15.05;7.53;;;;;;;;;;4967000;28;20503;-57
2021/10/05 00:39:18;;;;;;;15.95;9.20;;;;;;;;;;4967882;28;20429;-57
2021/10/05 00:41:43;;;;;;;18.88;9.90;;;;;;;;;;4970791;28;20030;-55
2021/10/05 00:44:09;;;;;;;21.40;10.43;;;;;;;;;;4966063;28;20034;-54
2021/10/05 00:46:35;;;;;;;18.65;10.00;;;;;;;;;;4967835;28;20049;-54
2021/10/05 00:49:01;;;;;;;19.65;9.63;;;;;;;;;;4971176;28;20603;-53
2021/10/05 00:51:27;;;;;;;21.23;10.63;;;;;;;;;;4968150;28;20027;-55
2021/10/05 00:53:53;;;;;;;20.35;11.23;;;;;;;;;;4954907;28;20030;-56
2021/10/05 00:56:19;;;;;;;19.05;10.32;;;;;;;;;;4971737;28;20026;-56
2021/10/05 00:58:44;;;;;;;19.88;10.52;;;;;;;;;;4971116;28;20039;-55
2021/10/05 01:01:10;;;;;;;22.67;11.70;;;;;;;;;;4948942;28;20048;-55
2021/10/05 01:03:35;;;;;;;24.48;11.40;;;;;;;;;;4964107;28;20101;-54
2021/10/05 01:06:01;;;;;;;19.90;10.88;;;;;;;;;;4954246;28;20583;-55
2021/10/05 01:08:29;;;;;;;24.10;11.38;;;;;;;;;;4967748;28;20023;-55
2021/10/05 01:10:55;;;;;;;24.58;11.63;;;;;;;;;;4970465;28;20434;-55
2021/10/05 01:13:20;;;;;;;21.52;11.75;;;;;;;;;;4949918;28;20026;-54
2021/10/05 01:15:46;;;;;;;23.90;11.80;;;;;;;;;;4971819;28;20493;-55
2021/10/05 01:18:11;;;;;;;24.55;11.50;;;;;;;;;;4968808;28;20038;-53
2021/10/05 01:20:56;;;;;;;22.13;11.82;;;;;;;;;;4970353;28;20026;-55
2021/10/05 01:23:23;;;;;;;25.88;13.10;;;;;;;;;;4967121;28;20327;-56
2021/10/05 01:25:49;;;;;;;20.63;10.85;;;;;;;;;;4964517;28;20027;-55
2021/10/05 01:28:18;;;;;;;22.13;12.30;;;;;;;;;;4969473;28;20550;-54
2021/10/05 01:30:43;;;;;;;20.08;11.35;;;;;;;;;;4965560;28;20089;-57
2021/10/05 01:33:09;;;;;;;21.55;11.60;;;;;;;;;;4966932;28;20030;-56
2021/10/05 01:35:35;;;;;;;22.70;11.00;;;;;;;;;;4950763;28;20069;-55
2021/10/05 01:38:01;;;;;;;23.42;11.98;;;;;;;;;;4971430;28;20031;-56
2021/10/05 01:40:26;;;;;;;20.63;11.30;;;;;;;;;;4966005;28;20039;-56
2021/10/05 01:42:52;;;;;;;24.15;10.88;;;;;;;;;;4969581;28;20084;-55
2021/10/05 01:45:17;;;;;;;22.38;11.48;;;;;;;;;;4970164;28;20054;-56
2021/10/05 01:47:43;;;;;;;24.13;12.07;;;;;;;;;;4950782;28;20145;-55
2021/10/05 01:50:08;;;;;;;20.58;10.65;;;;;;;;;;4967471;28;20468;-56
2021/10/05 01:52:34;;;;;;;21.75;11.75;;;;;;;;;;4966330;28;20034;-54
2021/10/05 01:54:59;;;;;;;22.90;11.20;;;;;;;;;;4967948;28;20027;-55
2021/10/05 01:57:25;;;;;;;22.85;12.05;;;;;;;;;;4967772;28;20054;-56
2021/10/05 01:59:50;;;;;;;26.48;12.25;;;;;;;;;;4969792;28;20034;-56
2021/10/05 02:02:15;;;;;;;25.40;12.85;;;;;;;;;;4966491;28;20035;-54
2021/10/05 02:04:44;;;;;;;23.77;11.85;;;;;;;;;;4966348;28;20039;-55
2021/10/05 02:07:11;;;;;;;23.67;11.37;;;;;;;;;;4974424;28;20026;-55
2021/10/05 02:09:37;;;;;;;23.63;12.07;;;;;;;;;;4966343;28;20039;-55
2021/10/05 02:12:03;;;;;;;21.60;11.10;;;;;;;;;;4963513;28;20110;-54
2021/10/05 02:14:28;;;;;;;24.63;11.77;;;;;;;;;;4965204;28;20034;-54
2021/10/05 02:16:54;;;;;;;26.40;12.95;;;;;;;;;;4967955;28;20026;-54
2021/10/05 02:19:19;;;;;;;24.73;11.68;;;;;;;;;;4969470;28;20034;-54
2021/10/05 02:21:45;;;;;;;24.73;11.85;;;;;;;;;;4964414;28;20110;-54
2021/10/05 02:24:56;;;;;;;26.60;12.73;;;;;;;;;;4969912;28;20033;-54
2021/10/05 02:26:56;;;;;;;24.48;12.02;;;;;;;;;;4952137;28;20525;-54
2021/10/05 02:29:22;;;;;;;27.77;13.07;;;;;;;;;;4953075;28;20100;-54
2021/10/05 02:31:49;;;;;;;25.60;12.05;;;;;;;;;;4970663;28;20084;-53
2021/10/05 02:34:14;;;;;;;28.65;12.32;;;;;;;;;;4966523;28;20042;-52
2021/10/05 02:36:41;;;;;;;23.17;11.93;;;;;;;;;;4972066;28;20027;-54
2021/10/05 02:39:07;;;;;;;29.75;13.23;;;;;;;;;;4965874;28;20494;-54
2021/10/05 02:41:32;;;;;;;25.77;13.05;;;;;;;;;;4954501;28;20038;-55
2021/10/05 02:43:57;;;;;;;27.95;13.25;;;;;;;;;;4967147;28;20035;-55
2021/10/05 02:46:23;;;;;;;27.77;13.00;;;;;;;;;;4967063;28;20448;-55
2021/10/05 02:48:48;;;;;;;26.45;12.68;;;;;;;;;;4967245;28;20125;-55
2021/10/05 02:51:14;;;;;;;26.50;12.60;;;;;;;;;;4966228;28;20023;-54
2021/10/05 02:53:39;;;;;;;29.92;14.18;;;;;;;;;;4966572;28;20033;-52
2021/10/05 02:56:05;;;;;;;25.50;12.30;;;;;;;;;;4968356;28;20114;-56
2021/10/05 02:58:30;;;;;;;29.63;15.05;;;;;;;;;;4952529;28;20485;-54
2021/10/05 03:00:56;;;;;;;27.75;13.85;;;;;;;;;;4961734;28;20113;-55
2021/10/05 03:03:21;;;;;;;31.92;15.23;;;;;;;;;;4969826;28;20046;-54
2021/10/05 03:05:47;;;;;;;30.67;14.43;;;;;;;;;;4969332;28;20068;-55
2021/10/05 03:08:12;;;;;;;28.50;13.95;;;;;;;;;;4966777;28;20457;-53
2021/10/05 03:10:37;;;;;;;30.77;14.98;;;;;;;;;;4964307;28;20030;-54
2021/10/05 03:13:04;;;;;;;27.95;13.48;;;;;;;;;;4964489;28;20027;-55
2021/10/05 03:15:29;;;;;;;32.88;16.08;;;;;;;;;;4968823;28;20116;-55
2021/10/05 03:17:55;;;;;;;29.10;14.07;;;;;;;;;;4964273;28;20062;-56
2021/10/05 03:20:20;;;;;;;32.10;14.05;;;;;;;;;;4969817;28;20384;-54
2021/10/05 03:22:46;;;;;;;30.58;13.85;;;;;;;;;;4955456;28;20404;-53
2021/10/05 03:25:11;;;;;;;30.70;14.90;;;;;;;;;;4969404;28;20481;-54
2021/10/05 03:27:37;;;;;;;29.40;14.30;;;;;;;;;;4968759;28;20537;-55
2021/10/05 03:30:07;;;;;;;29.55;14.32;;;;;;;;;;4952299;28;20551;-54
2021/10/05 03:32:32;;;;;;;30.88;15.07;;;;;;;;;;4968974;28;20050;-55
2021/10/05 03:34:58;;;;;;;31.88;14.65;;;;;;;;;;4967026;28;20516;-55
2021/10/05 03:37:23;;;;;;;28.52;13.50;;;;;;;;;;4974430;28;20134;-56
2021/10/05 03:39:50;;;;;;;30.95;13.55;;;;;;;;;;4975631;28;20028;-54
2021/10/05 03:42:15;;;;;;;30.30;14.38;;;;;;;;;;4968278;28;20035;-54
2021/10/05 03:44:41;;;;;;;31.08;13.48;;;;;;;;;;4968624;28;20039;-54
2021/10/05 03:47:06;;;;;;;33.03;13.95;;;;;;;;;;4971467;28;20031;-54
2021/10/05 03:49:32;;;;;;;30.70;13.82;;;;;;;;;;4970524;28;20034;-54
2021/10/05 03:51:58;;;;;;;33.92;15.23;;;;;;;;;;4969357;28;20539;-54
2021/10/05 03:54:23;;;;;;;31.17;14.93;;;;;;;;;;4970341;28;20068;-54
2021/10/05 03:56:49;;;;;;;29.80;13.32;;;;;;;;;;4951942;28;20137;-57
2021/10/05 03:59:19;;;;;;;33.85;14.75;;;;;;;;;;4970817;28;20035;-56
2021/10/05 04:01:45;;;;;;;30.42;13.68;;;;;;;;;;4971514;28;20027;-56
2021/10/05 04:04:11;;;;;;;28.90;14.05;;;;;;;;;;4967720;28;20055;-56
2021/10/05 04:06:37;;;;;;;31.08;14.25;;;;;;;;;;4969266;28;20404;-54
2021/10/05 04:09:08;;;;;;;31.05;13.57;;;;;;;;;;4972564;28;20026;-55
2021/10/05 04:11:34;;;;;;;31.05;13.93;;;;;;;;;;4951995;28;20046;-55
2021/10/05 04:14:00;;;;;;;29.42;13.55;;;;;;;;;;4960314;28;20035;-56
2021/10/05 04:16:25;;;;;;;34.00;13.80;;;;;;;;;;4972324;28;20113;-56
2021/10/05 04:18:51;;;;;;;30.83;13.65;;;;;;;;;;4968542;28;20397;-56
2021/10/05 04:21:16;;;;;;;30.35;14.55;;;;;;;;;;4968691;28;20370;-55
2021/10/05 04:23:41;;;;;;;27.80;12.70;;;;;;;;;;4965754;28;20396;-57
2021/10/05 04:26:07;;;;;;;27.55;12.30;;;;;;;;;;4967993;28;20030;-56
2021/10/05 04:28:33;;;;;;;31.55;13.15;;;;;;;;;;4968396;28;20202;-55
2021/10/05 04:30:58;;;;;;;29.63;13.90;;;;;;;;;;4968923;28;20058;-55
2021/10/05 04:33:23;;;;;;;33.40;14.23;;;;;;;;;;4967250;28;20085;-56
2021/10/05 04:35:49;;;;;;;29.55;13.40;;;;;;;;;;4969732;28;20080;-55
2021/10/05 04:38:14;;;;;;;30.38;14.63;;;;;;;;;;4969554;28;20019;-56
2021/10/05 04:40:40;;;;;;;26.85;12.75;;;;;;;;;;4971043;28;20019;-56
2021/10/05 04:43:05;;;;;;;29.33;13.05;;;;;;;;;;4967123;28;20049;-55
2021/10/05 04:45:30;;;;;;;27.05;12.50;;;;;;;;;;4969495;28;20019;-54
2021/10/05 04:47:56;;;;;;;27.90;12.25;;;;;;;;;;4974072;28;20079;-56
2021/10/05 04:50:21;;;;;;;29.88;12.88;;;;;;;;;;4967704;28;20034;-55
2021/10/05 04:52:47;;;;;;;25.85;11.13;;;;;;;;;;4952882;28;20039;-55
2021/10/05 04:55:12;;;;;;;28.73;13.20;;;;;;;;;;4972328;28;20069;-56
2021/10/05 04:57:38;;;;;;;28.02;13.32;;;;;;;;;;4961419;28;20062;-55
2021/10/05 05:00:07;;;;;;;27.02;11.63;;;;;;;;;;4950764;28;20034;-55
2021/10/05 05:02:33;;;;;;;30.33;12.75;;;;;;;;;;4971773;28;20039;-55
2021/10/05 05:04:58;;;;;;;33.35;13.35;;;;;;;;;;4954723;28;20555;-55
2021/10/05 05:07:23;;;;;;;25.05;11.95;;;;;;;;;;4964934;28;20408;-55
2021/10/05 05:09:49;;;;;;;28.52;11.20;;;;;;;;;;4966359;28;20101;-57
2021/10/05 05:12:14;;;;;;;26.98;12.05;;;;;;;;;;4969123;28;20037;-57
2021/10/05 05:14:40;;;;;;;26.65;12.52;;;;;;;;;;4953979;28;20027;-57
2021/10/05 05:17:06;;;;;;;25.05;12.27;;;;;;;;;;4956657;28;20452;-57
2021/10/05 05:19:31;;;;;;;29.30;12.18;;;;;;;;;;4972254;28;20062;-57
2021/10/05 05:21:59;;;;;;;26.13;11.60;;;;;;;;;;4968868;28;20108;-57
2021/10/05 05:24:26;;;;;;;26.48;12.27;;;;;;;;;;4969332;28;20030;-57
2021/10/05 05:26:51;;;;;;;29.38;13.63;;;;;;;;;;4969930;28;20081;-57
2021/10/05 05:29:17;;;;;;;29.45;13.52;;;;;;;;;;4975649;28;20039;-57
2021/10/05 05:31:44;;;;;;;27.88;13.00;;;;;;;;;;4970220;28;20038;-57
2021/10/05 05:34:09;;;;;;;25.73;11.52;;;;;;;;;;4964139;28;20027;-57
2021/10/05 05:36:35;;;;;;;26.17;12.20;;;;;;;;;;4969874;28;20038;-57
2021/10/05 05:39:01;;;;;;;25.90;11.88;;;;;;;;;;4964966;28;20720;-57
2021/10/05 05:41:27;;;;;;;27.00;12.02;;;;;;;;;;4971241;28;20584;-57
2021/10/05 05:43:52;;;;;;;24.63;12.15;;;;;;;;;;4950190;28;20034;-56
2021/10/05 05:46:18;;;;;;;29.20;12.68;;;;;;;;;;4965058;28;20035;-57
2021/10/05 05:48:43;;;;;;;29.65;12.18;;;;;;;;;;4970687;28;20073;-56
2021/10/05 05:51:08;;;;;;;28.02;12.60;;;;;;;;;;4963618;28;20049;-57
2021/10/05 05:53:34;;;;;;;26.30;12.00;;;;;;;;;;4974195;28;20042;-57
2021/10/05 05:56:00;;;;;;;22.58;10.82;;;;;;;;;;4967797;28;20039;-57
2021/10/05 05:58:25;;;;;;;16.63;7.97;;;;;;;;;;4966738;28;20098;-55
2021/10/05 06:00:51;;;;;;;19.58;8.07;;;;;;;;;;4970295;28;20035;-57
2021/10/05 06:03:16;;;;;;;23.92;9.98;;;;;;;;;;4972080;28;20529;-57
2021/10/05 06:05:42;;;;;;;28.58;12.60;;;;;;;;;;4965213;28;20406;-57
2021/10/05 06:08:08;;;;;;;25.73;11.82;;;;;;;;;;4968588;28;20035;-59
2021/10/05 06:10:33;;;;;;;26.20;11.82;;;;;;;;;;4966360;28;20391;-57
2021/10/05 06:12:59;;;;;;;25.60;12.20;;;;;;;;;;4963054;28;20031;-57
2021/10/05 06:15:25;;;;;;;28.27;13.02;;;;;;;;;;4971919;28;20504;-58
2021/10/05 06:17:51;;;;;;;29.50;12.70;;;;;;;;;;4965603;28;20038;-57
2021/10/05 06:20:21;;;;;;;29.05;12.80;;;;;;;;;;4965059;28;20493;-57
2021/10/05 06:22:47;;;;;;;28.08;12.90;;;;;;;;;;4970192;28;20401;-57
2021/10/05 06:25:17;;;;;;;27.95;12.75;;;;;;;;;;4968271;28;20027;-57
2021/10/05 06:27:44;;;;;;;30.55;13.70;;;;;;;;;;4971875;28;20515;-57
2021/10/05 06:30:11;;;;;;;30.95;13.43;;;;;;;;;;4945760;28;20030;-57
2021/10/05 06:32:36;;;;;;;28.83;13.10;;;;;;;;;;4950018;28;20087;-58
2021/10/05 06:35:03;;;;;;;29.10;12.40;;;;;;;;;;4951471;28;20054;-57
2021/10/05 06:37:29;;;;;;;27.75;12.70;;;;;;;;;;4966076;28;20519;-57
2021/10/05 06:39:54;;;;;;;29.13;12.45;;;;;;;;;;4944092;28;20022;-57
2021/10/05 06:42:20;;;;;;;35.28;15.13;;;;;;;;;;4965311;28;20050;-57
2021/10/05 06:44:45;;;;;;;35.28;14.40;;;;;;;;;;4954153;28;20441;-57
2021/10/05 06:47:11;;;;;;;35.55;13.63;;;;;;;;;;4965321;28;20030;-57
2021/10/05 06:49:36;;;;;;;30.08;13.05;;;;;;;;;;4970479;28;20039;-57
2021/10/05 06:52:03;;;;;;;29.23;12.90;;;;;;;;;;4957689;28;20373;-57
2021/10/05 06:54:29;;;;;;;29.95;12.30;;;;;;;;;;4965977;28;20030;-57
2021/10/05 06:56:54;;;;;;;29.80;12.13;;;;;;;;;;4971190;28;20049;-57
2021/10/05 06:59:20;;;;;;;31.15;13.65;;;;;;;;;;4974062;28;20453;-57
2021/10/05 07:01:45;;;;;;;30.35;12.30;;;;;;;;;;4974736;28;20030;-57
2021/10/05 07:04:11;;;;;;;26.60;11.32;;;;;;;;;;4971935;28;20033;-57
2021/10/05 07:06:38;;;;;;;27.25;11.63;;;;;;;;;;4956173;28;20031;-57
2021/10/05 07:09:04;;;;;;;30.27;12.05;;;;;;;;;;4968861;28;20031;-57
2021/10/05 07:11:31;;;;;;;28.55;11.27;;;;;;;;;;4973174;28;20318;-57
2021/10/05 07:13:57;;;;;;;30.15;13.45;;;;;;;;;;4978917;28;20093;-57
2021/10/05 07:16:22;;;;;;;28.90;12.40;;;;;;;;;;4956028;28;20429;-57
2021/10/05 07:18:49;;;;;;;29.13;12.93;;;;;;;;;;4973200;28;20043;-57
2021/10/05 07:21:14;;;;;;;29.77;13.13;;;;;;;;;;4950309;28;20432;-57
2021/10/05 07:23:39;;;;;;;28.05;12.23;;;;;;;;;;4960739;28;20035;-57
2021/10/05 07:26:05;;;;;;;26.80;12.50;;;;;;;;;;4970405;28;20169;-57
2021/10/05 07:28:30;;;;;;;32.95;13.43;;;;;;;;;;4973197;28;20402;-57
2021/10/05 07:30:56;;;;;;;22.08;10.77;;;;;;;;;;4975485;28;20022;-57
2021/10/05 07:33:23;;;;;;;25.50;10.98;;;;;;;;;;4977175;28;20022;-57
2021/10/05 07:35:49;;;;;;;22.58;10.15;;;;;;;;;;4957384;28;20030;-57
2021/10/05 07:38:15;;;;;;;20.40;10.13;;;;;;;;;;4976796;28;20501;-57
2021/10/05 07:40:40;;;;;;;20.90;9.80;;;;;;;;;;4953964;28;20065;-57
2021/10/05 07:43:06;;;;;;;21.98;9.75;;;;;;;;;;4960608;28;20041;-57
2021/10/05 07:45:32;;;;;;;21.90;10.18;;;;;;;;;;4972792;28;20034;-57
2021/10/05 07:47:58;;;;;;;20.00;9.55;;;;;;;;;;4973137;28;20042;-57
2021/10/05 07:50:24;;;;;;;22.23;9.38;;;;;;;;;;4971664;28;20045;-57
2021/10/05 07:52:50;;;;;;;20.67;9.15;;;;;;;;;;4975253;28;20030;-57
2021/10/05 07:55:16;;;;;;;20.15;10.20;;;;;;;;;;4969592;28;20027;-57
2021/10/05 07:57:43;;;;;;;20.58;9.80;;;;;;;;;;4969753;28;20030;-57
2021/10/05 08:00:10;;;;;;;19.00;9.07;;;;;;;;;;4968304;28;20390;-58
2021/10/05 08:02:35;;;;;;;21.20;9.98;;;;;;;;;;4954577;28;20046;-58
2021/10/05 08:05:01;;;;;;;21.15;10.00;;;;;;;;;;4973755;28;20077;-58
2021/10/05 08:07:27;;;;;;;19.10;9.25;;;;;;;;;;4971284;28;20126;-58
2021/10/05 08:09:56;;;;;;;20.42;9.75;;;;;;;;;;4973109;28;20037;-58
2021/10/05 08:12:23;;;;;;;18.58;8.35;;;;;;;;;;4971265;28;20250;-58
2021/10/05 08:14:50;;;;;;;19.40;8.75;;;;;;;;;;4975710;28;20580;-58
2021/10/05 08:17:16;;;;;;;17.17;8.85;;;;;;;;;;4956173;28;20132;-58
2021/10/05 08:19:42;;;;;;;16.60;8.38;;;;;;;;;;4953601;28;20033;-58
2021/10/05 08:22:07;;;;;;;15.88;8.20;;;;;;;;;;4973608;28;20030;-58
2021/10/05 08:24:35;;;;;;;14.07;7.25;;;;;;;;;;4968273;28;20038;-58
2021/10/05 08:27:01;;;;;;;12.25;6.53;;;;;;;;;;4966878;28;20023;-59
2021/10/05 08:29:26;;;;;;;12.00;6.05;;;;;;;;;;4964356;28;20030;-58
2021/10/05 08:31:52;;;;;;;11.07;5.20;;;;;;;;;;4977279;28;20041;-58
2021/10/05 08:34:20;;;;;;;11.48;5.18;;;;;;;;;;4972351;28;20035;-58
2021/10/05 08:36:45;;;;;;;9.43;5.47;;;;;;;;;;4969054;28;20030;-58
2021/10/05 08:39:14;;;;;;;11.68;6.32;;;;;;;;;;4972490;28;20030;-58
2021/10/05 08:41:43;;;;;;;11.75;5.80;;;;;;;;;;4969348;28;20433;-58
2021/10/05 08:44:09;;;;;;;8.23;4.45;;;;;;;;;;4967928;28;20061;-58
2021/10/05 08:46:39;;;;;;;11.85;5.05;;;;;;;;;;4966339;28;20039;-58
2021/10/05 08:49:05;;;;;;;6.60;3.63;;;;;;;;;;4972599;28;20035;-59
2021/10/05 08:51:31;;;;;;;6.45;3.70;;;;;;;;;;4972317;28;20046;-58
2021/10/05 08:53:56;;;;;;;10.35;4.97;;;;;;;;;;4971518;28;20046;-58
2021/10/05 08:56:22;;;;;;;9.70;5.43;;;;;;;;;;4960546;28;20466;-58
2021/10/05 08:58:48;;;;;;;9.25;5.03;;;;;;;;;;4968547;28;20038;-59
2021/10/05 09:01:16;;;;;;;8.57;4.53;;;;;;;;;;4969768;28;20532;-57
2021/10/05 09:03:52;;;;;;;9.95;5.00;;;;;;;;;;4974890;28;20035;-57
2021/10/05 09:06:20;;;;;;;10.57;5.03;;;;;;;;;;4964500;28;20042;-57
2021/10/05 09:08:47;;;;;;;8.38;4.82;;;;;;;;;;4970112;28;20140;-57
2021/10/05 09:11:14;;;;;;;8.68;4.93;;;;;;;;;;4969533;28;20057;-57
2021/10/05 09:13:42;;;;;;;8.10;4.53;;;;;;;;;;4978426;28;20030;-57
2021/10/05 09:16:17;;;;;;;7.85;4.10;;;;;;;;;;4972368;28;20050;-59
2021/10/05 09:18:55;;;;;;;8.15;4.05;;;;;;;;;;4961483;28;20114;-57
2021/10/05 09:21:25;;;;;;;7.07;4.22;;;;;;;;;;4966804;28;20554;-58
2021/10/05 09:23:59;;;;;;;6.65;3.90;;;;;;;;;;4968111;28;20034;-58
2021/10/05 09:26:49;;;;;;;8.05;4.53;;;;;;;;;;4968965;28;20022;-58
2021/10/05 09:29:30;;;;;;;8.35;4.47;;;;;;;;;;4966346;28;20030;-58
2021/10/05 09:32:01;;;;;;;9.07;5.13;;;;;;;;;;4967081;28;20109;-58
2021/10/05 09:34:50;;;;;;;8.13;4.70;;;;;;;;;;4953592;28;20521;-58
2021/10/05 09:37:18;;;;;;;11.40;5.60;;;;;;;;;;4969158;28;20026;-58
2021/10/05 09:40:06;;;;;;;11.32;6.43;;;;;;;;;;4964857;28;20034;-58
2021/10/05 09:42:37;;;;;;;13.27;6.50;;;;;;;;;;4966361;28;20043;-58
2021/10/05 09:45:17;;;;;;;12.70;6.28;;;;;;;;;;4967922;28;20029;-58
2021/10/05 09:47:51;;;;;;;18.88;8.15;;;;;;;;;;4947040;28;20097;-58
2021/10/05 09:50:18;;;;;;;12.63;5.97;;;;;;;;;;4964386;28;20026;-58
2021/10/05 09:52:49;;;;;;;10.55;5.57;;;;;;;;;;4966770;28;20398;-58
2021/10/05 09:55:16;;;;;;;13.32;5.95;;;;;;;;;;4967250;28;20393;-58
2021/10/05 09:57:42;;;;;;;9.25;4.82;;;;;;;;;;4969550;28;20039;-58
2021/10/05 10:00:10;;;;;;;8.65;4.53;;;;;;;;;;4965855;28;20087;-58
2021/10/05 10:02:37;;;;;;;8.70;4.35;;;;;;;;;;4971658;28;20538;-58
2021/10/05 10:05:05;;;;;;;7.85;4.65;;;;;;;;;;4969431;28;20045;-58
2021/10/05 10:07:31;;;;;;;8.25;4.72;;;;;;;;;;4951807;28;20030;-59
2021/10/05 10:09:57;;;;;;;7.25;4.60;;;;;;;;;;4964711;28;20492;-58
2021/10/05 10:12:23;;;;;;;11.75;5.72;;;;;;;;;;4955056;28;20034;-58
2021/10/05 10:14:53;;;;;;;10.48;5.32;;;;;;;;;;4964918;28;20106;-58
2021/10/05 10:17:23;;;;;;;7.82;5.05;;;;;;;;;;4963384;28;20035;-58
2021/10/05 10:19:48;;;;;;;6.82;4.07;;;;;;;;;;4964964;28;20038;-58
2021/10/05 10:22:14;;;;;;;10.52;6.53;;;;;;;;;;4966154;28;20034;-58
2021/10/05 10:24:53;;;;;;;7.70;5.00;;;;;;;;;;4971552;28;20106;-58
2021/10/05 10:27:20;;;;;;;6.25;3.63;;;;;;;;;;4970044;28;20046;-58
2021/10/05 10:29:47;;;;;;;5.18;3.50;;;;;;;;;;4971743;28;20116;-59
2021/10/05 10:32:21;;;;;;;7.57;4.18;;;;;;;;;;4969932;28;20193;-58
2021/10/05 10:35:00;;;;;;;5.50;3.60;;;;;;;;;;4971931;28;20077;-58
2021/10/05 10:37:26;;;;;;;6.90;3.97;;;;;;;;;;4958366;28;20035;-58
2021/10/05 10:39:54;;;;;;;5.38;3.50;;;;;;;;;;4971473;28;20045;-58
2021/10/05 10:42:29;;;;;;;4.57;3.05;;;;;;;;;;4972405;28;20392;-58
2021/10/05 10:44:56;;;;;;;6.72;3.50;;;;;;;;;;4973734;28;20623;-58
2021/10/05 10:47:24;;;;;;;5.35;2.63;;;;;;;;;;4970704;28;20124;-58
2021/10/05 10:50:04;;;;;;;6.60;2.92;;;;;;;;;;4969973;28;20026;-58
2021/10/05 10:52:37;;;;;;;3.50;2.40;;;;;;;;;;4972919;28;20523;-58
2021/10/05 10:55:05;;;;;;;5.65;3.67;;;;;;;;;;4972506;28;20037;-58
2021/10/05 10:57:39;;;;;;;3.28;2.20;;;;;;;;;;4973032;28;20458;-59
2021/10/05 11:00:17;;;;;;;4.28;2.38;;;;;;;;;;4974261;28;20084;-58
2021/10/05 11:02:51;;;;;;;3.67;2.47;;;;;;;;;;4972509;28;20043;-59
2021/10/05 11:05:20;;;;;;;2.47;2.10;;;;;;;;;;4976054;28;20022;-58
2021/10/05 11:07:46;;;;;;;2.97;2.13;;;;;;;;;;4969859;28;20023;-58
2021/10/05 11:10:12;;;;;;;3.83;2.00;;;;;;;;;;4975370;28;20050;-58
2021/10/05 11:12:48;;;;;;;2.28;1.67;;;;;;;;;;4971102;28;20118;-58
2021/10/05 11:15:14;;;;;;;2.10;1.60;;;;;;;;;;4958399;28;20158;-59
2021/10/05 11:17:44;;;;;;;3.53;2.38;;;;;;;;;;4977418;28;20109;-58
2021/10/05 11:20:09;;;;;;;3.30;1.80;;;;;;;;;;4971537;28;20026;-58
2021/10/05 11:22:35;;;;;;;3.65;1.58;;;;;;;;;;4970528;28;20042;-58
2021/10/05 11:25:02;;;;;;;2.33;1.38;;;;;;;;;;4976044;28;20519;-57
2021/10/05 11:27:27;;;;;;;2.17;1.38;;;;;;;;;;4972093;28;20034;-57
2021/10/05 11:30:00;;;;;;;1.90;1.45;;;;;;;;;;4968734;28;20200;-59
2021/10/05 11:32:26;;;;;;;1.75;1.50;;;;;;;;;;4972901;28;20038;-57
2021/10/05 11:34:52;;;;;;;2.72;1.55;;;;;;;;;;4972587;28;20358;-59
2021/10/05 11:37:20;;;;;;;1.50;1.40;;;;;;;;;;4973719;28;20105;-59
2021/10/05 11:39:47;;;;;;;3.35;1.83;;;;;;;;;;4953957;28;20504;-59
2021/10/05 11:42:18;;;;;;;2.00;1.70;;;;;;;;;;4969813;28;20042;-59
2021/10/05 11:44:53;;;;;;;2.35;1.80;;;;;;;;;;4969150;28;20450;-58
2021/10/05 11:47:24;;;;;;;3.30;1.88;;;;;;;;;;4968074;28;20045;-59
2021/10/05 11:50:00;;;;;;;2.97;1.52;;;;;;;;;;4967578;28;20066;-59
2021/10/05 11:52:29;;;;;;;2.45;1.90;;;;;;;;;;4971523;28;20023;-59
2021/10/05 11:54:55;;;;;;;2.78;1.60;;;;;;;;;;4969442;28;20034;-58
2021/10/05 11:57:24;;;;;;;2.40;2.00;;;;;;;;;;4953879;28;20027;-58
2021/10/05 11:59:50;;;;;;;2.42;1.80;;;;;;;;;;4971547;28;20022;-58
2021/10/05 12:02:18;;;;;;;3.58;2.40;;;;;;;;;;4972371;28;20114;-58
2021/10/05 12:04:52;;;;;;;2.75;2.33;;;;;;;;;;4955740;28;20077;-57
2021/10/05 12:07:22;;;;;;;4.63;2.90;;;;;;;;;;4971815;28;20393;-58
2021/10/05 12:10:02;;;;;;;2.95;2.53;;;;;;;;;;4970590;28;20830;-59
2021/10/05 12:12:32;;;;;;;4.32;2.67;;;;;;;;;;4969452;28;20035;-58
2021/10/05 12:15:02;;;;;;;5.03;3.45;;;;;;;;;;4966848;28;20026;-57
2021/10/05 12:17:29;;;;;;;3.53;2.92;;;;;;;;;;4970290;28;20039;-57
2021/10/05 12:20:04;;;;;;;3.10;2.53;;;;;;;;;;4966069;28;20088;-59
2021/10/05 12:22:38;;;;;;;5.00;2.72;;;;;;;;;;4950081;28;20678;-59
2021/10/05 12:25:07;;;;;;;4.15;2.53;;;;;;;;;;4966998;28;20034;-59
2021/10/05 12:27:33;;;;;;;3.10;2.50;;;;;;;;;;4969897;28;20026;-59
2021/10/05 12:29:58;;;;;;;2.38;2.15;;;;;;;;;;4970236;28;20047;-58
2021/10/05 12:32:57;;;;;;;4.50;2.60;;;;;;;;;;4950870;28;20042;-60
2021/10/05 12:35:24;;;;;;;;;;;;;;;;;;4955884;28;20034;-59
2021/10/05 12:38:04;;;;;;;4.00;2.45;;;;;;;;;;4969003;28;19926;-59
2021/10/05 12:40:41;;;;;;;;;;;;;;;;;;4963509;28;20081;-59
2021/10/05 12:43:06;;;;;;;5.28;2.47;;;;;;;;;;4972169;28;20427;-58
2021/10/05 12:45:33;;;;;;;3.75;2.25;;;;;;;;;;4953783;28;20034;-59
2021/10/05 12:48:01;;;;;;;3.75;2.40;;;;;;;;;;4969939;28;20489;-58
2021/10/05 12:50:41;;;;;;;4.70;2.30;;;;;;;;;;4965285;28;20030;-59
2021/10/05 12:53:07;;;;;;;4.35;2.20;;;;;;;;;;4972310;28;20049;-58
2021/10/05 12:55:34;;;;;;;2.97;2.30;;;;;;;;;;4970503;28;20027;-58
2021/10/05 12:58:02;;;;;;;3.90;2.30;;;;;;;;;;4973967;28;20084;-58
2021/10/05 13:00:29;;;;;;;4.32;2.50;;;;;;;;;;4967890;28;20484;-58
2021/10/05 13:02:54;;;;;;;4.72;2.20;;;;;;;;;;4968090;28;20046;-58
2021/10/05 13:05:22;;;;;;;3.17;2.28;;;;;;;;;;4970878;28;20039;-58
2021/10/05 13:07:49;;;;;;;2.88;2.20;;;;;;;;;;4973387;28;20041;-58
2021/10/05 13:10:18;;;;;;;4.20;2.25;;;;;;;;;;4970080;28;20568;-58
2021/10/05 13:12:43;;;;;;;3.87;2.07;;;;;;;;;;4967160;28;20327;-58
2021/10/05 13:15:09;;;;;;;4.75;2.42;;;;;;;;;;4953800;28;20042;-59
2021/10/05 13:17:36;;;;;;;3.05;2.08;;;;;;;;;;4956925;28;20078;-59
2021/10/05 13:20:03;;;;;;;4.88;2.10;;;;;;;;;;4960989;28;20027;-57
2021/10/05 13:22:29;;;;;;;5.22;2.40;;;;;;;;;;4962957;28;20038;-59
2021/10/05 13:24:54;;;;;;;6.80;2.10;;;;;;;;;;4946171;28;20037;-57
2021/10/05 13:27:20;;;;;;;9.82;2.65;;;;;;;;;;4956155;28;20052;-55
2021/10/05 13:29:45;;;;;;;9.82;2.00;;;;;;;;;;4968817;28;20070;-54
2021/10/05 13:32:11;;;;;;;5.05;2.00;;;;;;;;;;4966271;28;20418;-55
2021/10/05 13:34:37;;;;;;;6.43;2.00;;;;;;;;;;4968546;28;20026;-54
2021/10/05 13:37:03;;;;;;;2.97;1.50;;;;;;;;;;4968030;28;20019;-53
2021/10/05 13:39:28;;;;;;;2.38;1.60;;;;;;;;;;4943736;28;20026;-54
2021/10/05 13:41:54;;;;;;;2.83;1.38;;;;;;;;;;4929185;28;20890;-55
2021/10/05 13:44:20;;;;;;;2.88;1.48;;;;;;;;;;4929965;28;21483;-54
2021/10/05 13:46:47;;;;;;;2.53;1.15;;;;;;;;;;4963229;28;20107;-54
2021/10/05 13:49:12;;;;;;;4.82;1.30;;;;;;;;;;4965940;28;20038;-54
2021/10/05 13:51:37;;;;;;;3.85;2.60;;;;;;;;;;4966646;28;20037;-54
2021/10/05 13:54:03;;;;;;;5.70;1.70;;;;;;;;;;4965900;28;20105;-53
2021/10/05 13:56:30;;;;;;;2.45;0.98;;;;;;;;;;4967990;28;20485;-53
2021/10/05 13:58:58;;;;;;;1.15;1.05;;;;;;;;;;4970490;28;20026;-53
2021/10/05 14:01:27;;;;;;;2.38;1.55;;;;;;;;;;4964460;28;20042;-54
2021/10/05 14:03:52;;;;;;;1.63;1.20;;;;;;;;;;4966321;28;20023;-54
2021/10/05 14:06:19;;;;;;;2.42;0.90;;;;;;;;;;4971046;28;20046;-54
2021/10/05 14:08:47;;;;;;;1.50;1.40;;;;;;;;;;4971593;28;20030;-54
2021/10/05 14:11:13;;;;;;;2.20;1.42;;;;;;;;;;4968509;28;20561;-54
2021/10/05 14:13:38;;;;;;;1.27;1.17;;;;;;;;;;4965868;28;20066;-54
2021/10/05 14:16:05;;;;;;;2.17;1.25;;;;;;;;;;4968156;28;20490;-55
2021/10/05 14:18:31;;;;;;;3.88;1.00;;;;;;;;;;4966583;28;20026;-55
2021/10/05 14:21:00;;;;;;;1.25;0.98;;;;;;;;;;4968240;28;20034;-54
2021/10/05 14:23:26;;;;;;;3.67;1.47;;;;;;;;;;4967143;28;20022;-54
2021/10/05 14:25:51;;;;;;;1.42;1.02;;;;;;;;;;4969994;28;20056;-55
2021/10/05 14:28:17;;;;;;;2.70;1.15;;;;;;;;;;4965600;28;20027;-55